Time;durP1;ratioP1;P1;durP2;ratioP2;P2;SDS_P1;SDS_P2;PMS_P1;PMS_P2;Temp;Humidity;BMP_temperature;BMP_pressure;BME280_temperature;BME280_humidity;BME280_pressure;Samples;Min_cycle;Max_cycle;Signal;HPM_P1;HPM_P2
2023/01/17 00:02:00;;;;;;;7.43;0.95;;;3.90;99.90;;;;;;5054858;28;20083;-58
2023/01/17 00:09:57;;;;;;;8.15;1.05;;;4.00;99.90;;;;;;5073865;28;20084;-57
2023/01/17 00:12:25;;;;;;;8.93;1.30;;;3.90;99.90;;;;;;5058359;28;20041;-61
2023/01/17 00:14:53;;;;;;;10.18;1.15;;;3.90;99.90;;;;;;5071118;28;20048;-58
2023/01/17 00:17:19;;;;;;;3.20;0.90;;;3.90;99.90;;;;;;5059982;28;20051;-61
2023/01/17 01:34:33;;;;;;;8.18;1.00;;;3.20;99.90;;;;;;5072432;28;20048;-60
2023/01/17 01:37:00;;;;;;;7.13;0.80;;;3.10;99.90;;;;;;5069232;28;20395;-57
2023/01/17 01:39:26;;;;;;;1.60;0.77;;;3.10;99.90;;;;;;5070989;28;20166;-63
2023/01/17 01:41:53;;;;;;;9.05;1.17;;;3.10;99.90;;;;;;5071263;28;20064;-64
2023/01/17 01:44:42;;;;;;;9.57;1.65;;;3.10;99.90;;;;;;5053875;28;20057;-48
2023/01/17 01:47:10;;;;;;;4.32;0.90;;;3.10;99.90;;;;;;5063235;28;20061;-64
2023/01/17 01:49:37;;;;;;;8.25;1.10;;;3.10;99.90;;;;;;5054183;28;20481;-60
2023/01/17 01:52:04;;;;;;;10.23;1.30;;;3.10;99.90;;;;;;5067319;28;20049;-62
2023/01/17 01:54:33;;;;;;;10.65;0.98;;;3.10;99.90;;;;;;5068725;28;20083;-63
2023/01/17 01:57:00;;;;;;;5.30;0.80;;;3.10;99.90;;;;;;5076846;28;20467;-64
2023/01/17 01:59:29;;;;;;;6.43;0.82;;;3.10;99.90;;;;;;5067416;28;20101;-64
2023/01/17 02:01:56;;;;;;;5.15;0.80;;;3.10;99.90;;;;;;5055598;28;20056;-65
2023/01/17 02:04:25;;;;;;;6.90;1.10;;;3.00;99.90;;;;;;5067556;28;20056;-62
2023/01/17 02:06:53;;;;;;;6.65;0.82;;;3.00;99.90;;;;;;5064296;28;20052;-46
2023/01/17 02:09:20;;;;;;;4.00;0.60;;;3.00;99.90;;;;;;5056494;28;20087;-65
2023/01/17 02:11:47;;;;;;;6.35;0.70;;;3.00;99.90;;;;;;5069482;28;20045;-57
2023/01/17 02:14:15;;;;;;;6.80;0.98;;;3.00;99.90;;;;;;5064066;28;20080;-63
2023/01/17 02:16:48;;;;;;;4.10;0.80;;;2.90;99.90;;;;;;5065293;28;20054;-62
2023/01/17 02:19:54;;;;;;;11.80;1.15;;;2.90;99.90;;;;;;5056641;28;20136;-60
2023/01/17 02:22:44;;;;;;;5.57;1.58;;;2.90;99.90;;;;;;5014996;28;20554;-58
2023/01/17 02:25:34;;;;;;;7.28;0.95;;;2.90;99.90;;;;;;5060981;28;20560;-57
2023/01/17 02:28:10;;;;;;;8.90;1.02;;;2.80;99.90;;;;;;5053277;28;20091;-63
2023/01/17 02:30:39;;;;;;;6.35;1.05;;;2.80;99.90;;;;;;5053936;28;20445;-62
2023/01/17 02:33:14;;;;;;;4.88;0.85;;;2.80;99.90;;;;;;5055601;28;20424;-59
2023/01/17 02:35:46;;;;;;;4.35;1.13;;;2.80;99.90;;;;;;5070263;28;20095;-61
2023/01/17 02:38:16;;;;;;;8.70;0.80;;;2.80;99.90;;;;;;5053141;28;20091;-61
2023/01/17 02:40:45;;;;;;;5.15;0.70;;;2.80;99.90;;;;;;5068226;28;20115;-62
2023/01/17 02:43:13;;;;;;;3.88;0.60;;;2.80;99.90;;;;;;5052705;28;20053;-61
2023/01/17 02:45:41;;;;;;;7.38;0.85;;;2.80;99.90;;;;;;5052718;28;20053;-57
2023/01/17 02:48:09;;;;;;;8.38;0.82;;;2.80;99.90;;;;;;5051850;28;20098;-49
2023/01/17 02:50:43;;;;;;;4.97;0.95;;;2.80;99.90;;;;;;5059559;28;20113;-59
2023/01/17 02:53:16;;;;;;;6.10;0.85;;;2.80;99.90;;;;;;5053032;28;20477;-57
2023/01/17 02:55:48;;;;;;;6.88;0.90;;;2.80;99.90;;;;;;5066836;28;20541;-60
2023/01/17 02:58:24;;;;;;;14.15;1.10;;;2.80;99.90;;;;;;5068426;28;20133;-62
2023/01/17 03:00:57;;;;;;;9.45;1.10;;;2.80;99.90;;;;;;5060145;28;20049;-59
2023/01/17 03:03:26;;;;;;;5.43;0.98;;;2.80;99.90;;;;;;5057162;28;20056;-61
2023/01/17 03:05:54;;;;;;;11.02;1.10;;;2.80;99.90;;;;;;5052437;28;20564;-59
2023/01/17 03:08:21;;;;;;;12.35;1.52;;;2.80;99.90;;;;;;5064025;28;20133;-51
2023/01/17 03:10:48;;;;;;;6.80;1.08;;;2.80;99.90;;;;;;5076915;28;20053;-62
2023/01/17 03:13:15;;;;;;;4.45;0.90;;;2.80;99.90;;;;;;5055783;28;20087;-62
2023/01/17 03:15:42;;;;;;;6.10;0.80;;;2.80;99.90;;;;;;5056177;28;20570;-60
2023/01/17 03:18:11;;;;;;;3.92;1.00;;;2.90;99.90;;;;;;5058200;28;20044;-63
2023/01/17 03:20:38;;;;;;;5.93;0.85;;;2.80;99.90;;;;;;5057349;28;20054;-62
2023/01/17 03:23:05;;;;;;;9.48;0.80;;;2.80;99.90;;;;;;5064149;28;20080;-62
2023/01/17 03:25:31;;;;;;;5.32;1.05;;;2.70;99.90;;;;;;5054940;28;20076;-62
2023/01/17 03:27:58;;;;;;;5.13;1.00;;;2.70;99.90;;;;;;5066239;28;20087;-58
2023/01/17 03:30:25;;;;;;;5.32;1.10;;;2.70;99.90;;;;;;5065157;28;20095;-60
2023/01/17 03:32:52;;;;;;;5.45;0.93;;;2.70;99.90;;;;;;5052245;28;20437;-58
2023/01/17 03:35:20;;;;;;;11.48;1.38;;;2.60;99.90;;;;;;5052238;28;20123;-61
2023/01/17 03:37:47;;;;;;;7.82;1.30;;;2.70;99.90;;;;;;5073817;28;20083;-55
2023/01/17 03:40:13;;;;;;;5.75;1.50;;;2.70;99.90;;;;;;5069497;28;20083;-59
2023/01/17 03:42:41;;;;;;;5.00;0.85;;;2.60;99.90;;;;;;5070834;28;20052;-60
2023/01/17 03:45:09;;;;;;;10.55;1.10;;;2.60;99.90;;;;;;5066417;28;20063;-61
2023/01/17 03:47:36;;;;;;;7.00;1.30;;;2.60;99.90;;;;;;5072025;28;20404;-60
2023/01/17 03:50:03;;;;;;;8.38;0.90;;;2.60;99.90;;;;;;5066432;28;20102;-60
2023/01/17 03:52:31;;;;;;;8.00;1.20;;;2.60;99.90;;;;;;5070597;28;20098;-59
2023/01/17 03:54:58;;;;;;;8.13;1.10;;;2.60;99.90;;;;;;5056948;28;20095;-56
2023/01/17 03:57:25;;;;;;;8.18;1.33;;;2.60;99.90;;;;;;5065583;28;20057;-60
2023/01/17 03:59:52;;;;;;;5.50;0.90;;;2.60;99.90;;;;;;5053956;28;20080;-60
2023/01/17 04:02:18;;;;;;;8.38;0.70;;;2.50;99.90;;;;;;5068775;28;20435;-57
2023/01/17 04:04:45;;;;;;;7.30;1.20;;;2.50;99.90;;;;;;5071801;28;20048;-60
2023/01/17 04:07:12;;;;;;;12.07;1.48;;;2.50;99.90;;;;;;5061100;28;20114;-58
2023/01/17 04:09:40;;;;;;;13.13;1.65;;;2.50;99.90;;;;;;5066600;28;20128;-60
2023/01/17 04:12:08;;;;;;;9.02;0.98;;;2.50;99.90;;;;;;5065337;28;20048;-59
2023/01/17 04:14:35;;;;;;;7.45;1.20;;;2.50;99.90;;;;;;5073477;28;20453;-59
2023/01/17 04:17:02;;;;;;;12.38;1.33;;;2.50;99.90;;;;;;5070935;28;20087;-56
2023/01/17 04:19:30;;;;;;;11.02;1.45;;;2.50;99.90;;;;;;5071088;28;20554;-58
2023/01/17 04:21:56;;;;;;;7.93;1.20;;;2.40;99.90;;;;;;5054971;28;20153;-58
2023/01/17 04:24:23;;;;;;;8.40;1.15;;;2.40;99.90;;;;;;5083150;28;20082;-58
2023/01/17 04:26:51;;;;;;;5.32;0.90;;;2.40;99.90;;;;;;5095407;28;20075;-57
2023/01/17 04:29:18;;;;;;;5.07;0.98;;;2.40;99.90;;;;;;5089640;28;20048;-59
2023/01/17 04:31:46;;;;;;;3.67;1.00;;;2.40;99.90;;;;;;5057157;28;20106;-59
2023/01/17 04:34:13;;;;;;;4.97;0.90;;;2.40;99.90;;;;;;5072165;28;20385;-58
2023/01/17 04:36:40;;;;;;;9.40;1.40;;;2.30;99.90;;;;;;5069503;28;20136;-52
2023/01/17 04:39:06;;;;;;;10.38;1.00;;;2.30;99.90;;;;;;5058699;28;20083;-56
2023/01/17 04:41:33;;;;;;;9.35;1.20;;;2.30;99.90;;;;;;5051968;28;20554;-55
2023/01/17 04:44:02;;;;;;;11.90;1.42;;;2.30;99.90;;;;;;5056143;28;20206;-58
2023/01/17 04:46:28;;;;;;;9.25;1.25;;;2.30;99.90;;;;;;5073089;28;20044;-59
2023/01/17 04:48:55;;;;;;;8.32;1.10;;;2.30;99.90;;;;;;5053723;28;20500;-58
2023/01/17 04:51:22;;;;;;;6.47;1.08;;;2.20;99.90;;;;;;5065548;28;20058;-58
2023/01/17 04:53:49;;;;;;;8.75;1.38;;;2.20;99.90;;;;;;5094496;28;20415;-58
2023/01/17 04:56:16;;;;;;;6.90;1.25;;;2.20;99.90;;;;;;5094669;28;20105;-58
2023/01/17 04:58:43;;;;;;;10.02;1.55;;;2.20;99.90;;;;;;5093488;28;20044;-54
2023/01/17 05:01:11;;;;;;;8.80;1.10;;;2.10;99.90;;;;;;5070462;28;20058;-59
2023/01/17 05:03:38;;;;;;;10.00;1.20;;;2.10;99.90;;;;;;5071152;28;20061;-57
2023/01/17 05:06:05;;;;;;;12.38;1.08;;;2.10;99.90;;;;;;5071117;28;20080;-57
2023/01/17 05:08:32;;;;;;;7.18;1.25;;;2.10;99.90;;;;;;5057755;28;20076;-59
2023/01/17 05:10:58;;;;;;;7.85;0.95;;;2.10;99.90;;;;;;5064488;28;20071;-58
2023/01/17 05:13:25;;;;;;;10.82;1.40;;;2.10;99.90;;;;;;5071593;28;20044;-61
2023/01/17 05:15:52;;;;;;;5.80;1.35;;;2.00;99.90;;;;;;5069767;28;20044;-61
2023/01/17 05:18:20;;;;;;;3.22;0.85;;;2.10;99.90;;;;;;5082488;28;20044;-59
2023/01/17 05:20:47;;;;;;;11.88;1.20;;;2.10;99.90;;;;;;5063236;28;20073;-61
2023/01/17 05:23:14;;;;;;;8.15;1.00;;;2.00;99.90;;;;;;5053864;28;20084;-61
2023/01/17 05:25:43;;;;;;;6.25;0.88;;;2.00;99.90;;;;;;5053110;28;20103;-61
2023/01/17 05:28:10;;;;;;;11.10;1.35;;;2.00;99.90;;;;;;5053033;28;20484;-61
2023/01/17 05:30:37;;;;;;;12.02;1.30;;;2.00;99.90;;;;;;5064437;28;20079;-60
2023/01/17 05:33:04;;;;;;;4.68;1.00;;;2.00;99.90;;;;;;5072282;28;20475;-58
2023/01/17 05:35:32;;;;;;;7.30;1.40;;;1.90;99.90;;;;;;5069736;28;20567;-60
2023/01/17 05:37:59;;;;;;;6.63;1.17;;;2.00;99.90;;;;;;5084376;28;20403;-60
2023/01/17 05:40:27;;;;;;;6.35;0.98;;;2.00;99.90;;;;;;5087751;28;20134;-58
2023/01/17 05:42:54;;;;;;;7.50;1.30;;;1.90;99.90;;;;;;5072398;28;20568;-58
2023/01/17 05:45:22;;;;;;;9.30;1.02;;;1.90;99.90;;;;;;5070977;28;20139;-61
2023/01/17 05:47:50;;;;;;;6.35;1.13;;;1.80;99.90;;;;;;5072471;28;20135;-61
2023/01/17 05:50:19;;;;;;;9.20;1.20;;;1.80;99.90;;;;;;5072469;28;20084;-58
2023/01/17 05:52:50;;;;;;;4.82;1.20;;;1.80;99.90;;;;;;5073473;28;20053;-55
2023/01/17 05:55:17;;;;;;;7.05;0.85;;;1.80;99.90;;;;;;5071764;28;20098;-57
2023/01/17 05:57:44;;;;;;;8.50;2.05;;;1.80;99.90;;;;;;5073355;28;20409;-59
2023/01/17 06:00:12;;;;;;;7.95;1.27;;;1.80;99.90;;;;;;5057057;28;20127;-53
2023/01/17 06:02:38;;;;;;;10.00;1.05;;;1.80;99.90;;;;;;5052729;28;20137;-54
2023/01/17 06:05:06;;;;;;;11.75;1.33;;;1.80;99.90;;;;;;5053381;28;20049;-58
2023/01/17 06:07:32;;;;;;;12.70;1.65;;;1.70;99.90;;;;;;5053507;28;20081;-59
2023/01/17 06:10:01;;;;;;;14.05;1.70;;;1.70;99.90;;;;;;5069518;28;20086;-57
2023/01/17 06:12:27;;;;;;;9.30;0.95;;;1.70;99.90;;;;;;5053159;28;20053;-53
2023/01/17 06:14:54;;;;;;;9.20;1.30;;;1.60;99.90;;;;;;5069392;28;20385;-57
2023/01/17 06:17:21;;;;;;;8.45;1.65;;;1.60;99.90;;;;;;5052420;28;20056;-55
2023/01/17 06:19:48;;;;;;;13.32;1.60;;;1.70;99.90;;;;;;5061826;28;20136;-53
2023/01/17 06:22:15;;;;;;;8.63;1.30;;;1.70;99.90;;;;;;5072964;28;20457;-54
2023/01/17 06:24:41;;;;;;;11.05;1.40;;;1.60;99.90;;;;;;5053533;28;20093;-57
2023/01/17 06:27:10;;;;;;;3.95;0.88;;;1.60;99.90;;;;;;5077646;28;20131;-56
2023/01/17 06:29:37;;;;;;;5.70;1.48;;;1.60;99.90;;;;;;5052711;28;20047;-56
2023/01/17 06:32:04;;;;;;;7.00;1.80;;;1.60;99.90;;;;;;5051606;28;20084;-55
2023/01/17 06:34:31;;;;;;;4.65;1.10;;;1.50;99.90;;;;;;5052522;28;20458;-56
2023/01/17 06:36:57;;;;;;;8.02;1.20;;;1.60;99.90;;;;;;5073849;28;20087;-50
2023/01/17 06:39:24;;;;;;;6.15;1.30;;;1.50;99.90;;;;;;5075610;28;20113;-57
2023/01/17 06:41:51;;;;;;;4.13;1.10;;;1.50;99.90;;;;;;5072198;28;20484;-52
2023/01/17 06:44:19;;;;;;;11.70;1.15;;;1.50;99.90;;;;;;5070087;28;20056;-56
2023/01/17 06:46:47;;;;;;;11.05;1.38;;;1.50;99.90;;;;;;5066667;28;20080;-57
2023/01/17 06:49:14;;;;;;;8.52;1.23;;;1.50;99.90;;;;;;4988736;22;20490;-49
2023/01/17 06:51:41;;;;;;;9.75;1.50;;;1.50;99.90;;;;;;5023300;28;20049;-53
2023/01/17 06:54:08;;;;;;;7.00;1.13;;;1.40;99.90;;;;;;5030435;28;20143;-51
2023/01/17 06:56:35;;;;;;;6.82;1.27;;;1.50;99.90;;;;;;5030316;28;20053;-56
2023/01/17 06:59:02;;;;;;;4.72;1.88;;;1.40;99.90;;;;;;5031005;28;20046;-54
2023/01/17 07:01:31;;;;;;;8.88;1.35;;;1.40;99.90;;;;;;5029328;28;20137;-53
2023/01/17 07:03:58;;;;;;;9.73;1.35;;;1.40;99.90;;;;;;5029223;28;20057;-47
2023/01/17 07:06:27;;;;;;;9.32;1.73;;;1.40;99.90;;;;;;5029485;28;20111;-55
2023/01/17 07:08:54;;;;;;;4.47;1.23;;;1.30;99.90;;;;;;5031258;28;20111;-55
2023/01/17 07:11:21;;;;;;;7.47;1.27;;;1.30;99.90;;;;;;5031414;28;20053;-56
2023/01/17 07:13:48;;;;;;;6.93;1.27;;;1.30;99.90;;;;;;5030499;28;20057;-55
2023/01/17 07:16:15;;;;;;;5.55;0.95;;;1.30;99.90;;;;;;5029403;28;20081;-53
2023/01/17 07:18:43;;;;;;;6.50;0.73;;;1.40;99.90;;;;;;5030040;28;20477;-56
2023/01/17 07:21:12;;;;;;;5.25;1.08;;;1.40;99.90;;;;;;5031141;28;20045;-54
2023/01/17 07:23:39;;;;;;;4.82;1.02;;;1.30;99.90;;;;;;5030270;28;20462;-56
2023/01/17 07:26:06;;;;;;;2.80;1.05;;;1.30;99.90;;;;;;5028872;28;20085;-56
2023/01/17 07:28:33;;;;;;;9.90;1.08;;;1.30;99.90;;;;;;5030849;28;20085;-47
2023/01/17 07:31:03;;;;;;;6.72;0.93;;;1.30;99.90;;;;;;5030919;28;20493;-49
2023/01/17 07:33:30;;;;;;;4.90;0.80;;;1.30;99.90;;;;;;5029863;28;20130;-41
2023/01/17 07:35:58;;;;;;;5.88;0.90;;;1.30;99.90;;;;;;5030638;28;20064;-49
2023/01/17 07:38:25;;;;;;;5.07;1.20;;;1.20;99.90;;;;;;5030833;28;20057;-50
2023/01/17 07:40:52;;;;;;;6.38;1.42;;;1.20;99.90;;;;;;5031026;28;20058;-47
2023/01/17 07:43:19;;;;;;;10.20;1.35;;;1.20;99.90;;;;;;5029799;28;20085;-52
2023/01/17 07:45:48;;;;;;;7.43;1.50;;;1.30;99.90;;;;;;5031271;28;20115;-52
2023/01/17 07:48:15;;;;;;;10.10;1.50;;;1.30;99.90;;;;;;5032743;28;20064;-50
2023/01/17 07:50:42;;;;;;;9.00;1.63;;;1.30;99.90;;;;;;5033568;28;20057;-51
2023/01/17 07:53:10;;;;;;;9.60;3.65;;;1.20;99.90;;;;;;5034578;28;20080;-51
2023/01/17 07:55:37;;;;;;;13.50;2.97;;;1.30;99.90;;;;;;5032732;28;20095;-52
2023/01/17 07:58:03;;;;;;;8.38;1.58;;;1.30;99.90;;;;;;5031736;28;20089;-50
2023/01/17 08:00:30;;;;;;;10.07;1.40;;;1.20;99.90;;;;;;5033353;28;20124;-55
2023/01/17 08:02:57;;;;;;;8.30;1.67;;;1.30;99.90;;;;;;5033559;28;20053;-49
2023/01/17 08:05:24;;;;;;;12.35;1.95;;;1.30;99.90;;;;;;5034497;28;20050;-48
2023/01/17 08:07:51;;;;;;;10.70;1.77;;;1.20;99.90;;;;;;5033987;28;20092;-54
2023/01/17 08:10:20;;;;;;;12.65;1.52;;;1.30;99.90;;;;;;5032450;28;20061;-49
2023/01/17 08:12:46;;;;;;;8.40;1.70;;;1.30;99.90;;;;;;5034366;28;20060;-52
2023/01/17 08:15:13;;;;;;;7.90;1.40;;;1.40;99.90;;;;;;5014526;28;20563;-52
2023/01/17 08:17:45;;;;;;;10.30;1.75;;;1.40;99.90;;;;;;5014769;28;20049;-53
2023/01/17 08:20:12;;;;;;;5.93;1.65;;;1.40;99.90;;;;;;5027005;28;20128;-52
2023/01/17 08:22:38;;;;;;;9.07;1.20;;;1.40;99.90;;;;;;5014504;28;20111;-48
2023/01/17 08:25:06;;;;;;;5.47;1.30;;;1.50;99.90;;;;;;5027280;28;20077;-51
2023/01/17 08:27:34;;;;;;;8.60;1.50;;;1.50;99.90;;;;;;5031290;28;20049;-52
2023/01/17 08:30:01;;;;;;;4.65;1.25;;;1.50;99.90;;;;;;5032120;28;20084;-52
2023/01/17 08:32:27;;;;;;;4.28;1.27;;;1.50;99.90;;;;;;5032948;28;20053;-51
2023/01/17 08:34:55;;;;;;;11.15;1.52;;;1.50;99.90;;;;;;5033244;28;20653;-54
2023/01/17 08:37:22;;;;;;;11.20;1.65;;;1.60;99.90;;;;;;5031122;28;20049;-52
2023/01/17 08:39:49;;;;;;;6.53;1.17;;;1.50;99.90;;;;;;5033022;28;20064;-50
2023/01/17 08:42:15;;;;;;;8.73;1.65;;;1.50;99.90;;;;;;5031387;28;20061;-53
2023/01/17 08:44:44;;;;;;;6.57;1.42;;;1.50;99.90;;;;;;5040782;28;20049;-49
2023/01/17 08:47:10;;;;;;;13.73;1.50;;;1.60;99.90;;;;;;5031526;28;20513;-55
2023/01/17 08:49:37;;;;;;;15.10;2.80;;;1.60;99.90;;;;;;5030859;28;20045;-53
2023/01/17 08:52:05;;;;;;;8.35;2.50;;;1.60;99.90;;;;;;5031428;28;20204;-48
2023/01/17 08:54:31;;;;;;;15.07;2.63;;;1.60;99.90;;;;;;5033085;28;20497;-49
2023/01/17 08:56:58;;;;;;;8.45;1.65;;;1.60;99.90;;;;;;5031284;28;20085;-53
2023/01/17 08:59:25;;;;;;;6.95;1.67;;;1.70;99.90;;;;;;5031978;28;20147;-53
2023/01/17 09:01:56;;;;;;;8.50;1.90;;;1.70;99.90;;;;;;5031888;28;20061;-48
2023/01/17 09:04:23;;;;;;;5.78;1.30;;;1.80;99.90;;;;;;5031341;28;20064;-51
2023/01/17 09:06:50;;;;;;;8.15;1.33;;;1.80;99.90;;;;;;5032391;28;20081;-46
2023/01/17 09:09:17;;;;;;;15.40;2.45;;;1.80;99.90;;;;;;5016578;28;20075;-51
2023/01/17 09:11:44;;;;;;;8.90;2.58;;;1.80;99.90;;;;;;5030328;28;20422;-49
2023/01/17 09:14:12;;;;;;;9.57;2.03;;;1.80;99.90;;;;;;5030399;28;20088;-46
2023/01/17 09:16:38;;;;;;;11.90;1.98;;;1.80;99.90;;;;;;5032421;28;20061;-46
2023/01/17 09:19:07;;;;;;;9.48;1.38;;;1.80;99.90;;;;;;5041338;28;20061;-51
2023/01/17 09:21:33;;;;;;;5.93;2.15;;;1.80;99.90;;;;;;5032847;28;20121;-53
2023/01/17 09:24:02;;;;;;;6.60;1.55;;;1.90;99.90;;;;;;5030145;28;20445;-53
2023/01/17 09:26:29;;;;;;;9.98;2.13;;;1.90;99.90;;;;;;5012016;28;20100;-41
2023/01/17 09:28:57;;;;;;;11.55;1.80;;;2.00;99.90;;;;;;5014633;28;20457;-52
2023/01/17 09:31:25;;;;;;;8.68;1.85;;;2.10;99.90;;;;;;5031738;28;20052;-52
2023/01/17 09:33:53;;;;;;;11.95;2.05;;;2.10;99.90;;;;;;5031995;28;20056;-50
2023/01/17 09:36:22;;;;;;;9.98;1.80;;;2.10;99.90;;;;;;5031837;28;20084;-49
2023/01/17 09:38:49;;;;;;;11.63;2.67;;;2.20;99.90;;;;;;5031430;28;20057;-53
2023/01/17 09:41:21;;;;;;;10.85;2.03;;;2.30;99.90;;;;;;5025044;28;20057;-51
2023/01/17 09:43:49;;;;;;;6.03;1.98;;;2.30;99.90;;;;;;5031976;28;20063;-54
2023/01/17 09:46:21;;;;;;;9.27;2.25;;;2.30;99.90;;;;;;5039737;28;20130;-49
2023/01/17 09:48:48;;;;;;;7.90;2.28;;;2.40;99.90;;;;;;5028553;28;20053;-50
2023/01/17 09:51:17;;;;;;;6.35;2.53;;;2.50;99.90;;;;;;5030088;28;20057;-44
2023/01/17 09:53:45;;;;;;;9.30;2.28;;;2.50;99.90;;;;;;5030583;28;20137;-50
2023/01/17 09:56:13;;;;;;;9.65;1.70;;;2.60;99.90;;;;;;5012065;28;20490;-53
2023/01/17 09:58:42;;;;;;;9.60;2.20;;;2.70;99.90;;;;;;5024353;28;20392;-38
2023/01/17 10:01:13;;;;;;;11.02;2.78;;;2.70;99.90;;;;;;5028890;28;20134;-54
2023/01/17 10:03:43;;;;;;;14.43;2.17;;;2.70;99.90;;;;;;5031077;28;20057;-55
2023/01/17 10:06:33;;;;;;;13.73;2.20;;;2.80;99.90;;;;;;5031183;28;20096;-54
2023/01/17 10:09:07;;;;;;;10.35;3.00;;;2.90;99.90;;;;;;5039075;28;20081;-54
2023/01/17 10:11:43;;;;;;;10.77;2.10;;;3.00;99.90;;;;;;5027997;28;20481;-49
2023/01/17 10:14:28;;;;;;;9.25;2.30;;;3.00;99.90;;;;;;5031295;28;20141;-52
2023/01/17 10:16:57;;;;;;;8.10;2.67;;;3.10;99.90;;;;;;5029417;28;20042;-51
2023/01/17 10:19:37;;;;;;;10.48;2.65;;;3.10;99.90;;;;;;5029387;28;20486;-53
2023/01/17 10:22:29;;;;;;;12.38;2.30;;;3.20;99.90;;;;;;5030596;28;20050;-56
2023/01/17 10:25:11;;;;;;;7.80;2.15;;;3.30;99.90;;;;;;5011694;28;20052;-56
2023/01/17 10:27:40;;;;;;;6.45;1.50;;;3.30;99.90;;;;;;5030326;28;20107;-57
2023/01/17 10:30:16;;;;;;;7.05;1.80;;;3.40;99.90;;;;;;5030399;28;20081;-49
2023/01/17 10:32:47;;;;;;;6.20;2.28;;;3.40;99.90;;;;;;5029337;28;20423;-52
2023/01/17 10:35:21;;;;;;;8.02;1.63;;;3.50;99.90;;;;;;5011859;28;20050;-55
2023/01/17 10:37:47;;;;;;;7.60;1.65;;;3.50;99.90;;;;;;5011832;28;20410;-56
2023/01/17 10:40:17;;;;;;;6.70;1.48;;;3.50;99.90;;;;;;5023362;28;20060;-55
2023/01/17 10:42:48;;;;;;;6.38;1.83;;;3.60;99.90;;;;;;5029951;28;20049;-50
2023/01/17 10:45:16;;;;;;;10.32;1.90;;;3.60;99.90;;;;;;5043238;28;20124;-56
2023/01/17 10:47:44;;;;;;;8.20;1.85;;;3.70;99.90;;;;;;5034716;28;20085;-53
2023/01/17 10:50:12;;;;;;;5.30;1.90;;;3.80;99.90;;;;;;5029449;28;20125;-56
2023/01/17 10:52:44;;;;;;;9.25;1.77;;;3.90;99.90;;;;;;5028851;28;20053;-50
2023/01/17 10:55:19;;;;;;;4.25;1.75;;;3.90;99.90;;;;;;5019941;28;20056;-56
2023/01/17 10:57:47;;;;;;;8.00;1.50;;;3.90;99.90;;;;;;5030632;28;20084;-57
2023/01/17 11:00:38;;;;;;;8.05;1.65;;;3.90;99.90;;;;;;5030439;28;20409;-52
2023/01/17 11:03:05;;;;;;;9.32;1.63;;;4.00;99.90;;;;;;5024579;28;20057;-52
2023/01/17 11:05:33;;;;;;;9.27;1.30;;;3.90;99.90;;;;;;5026859;28;20164;-55
2023/01/17 11:08:00;;;;;;;9.55;1.85;;;3.90;99.90;;;;;;5021141;28;20498;-56
2023/01/17 11:10:38;;;;;;;5.00;1.50;;;3.90;99.90;;;;;;5009616;28;20166;-57
2023/01/17 11:13:06;;;;;;;12.88;1.48;;;4.00;99.90;;;;;;5014569;28;20512;-56
2023/01/17 11:15:33;;;;;;;10.32;1.60;;;4.00;99.90;;;;;;5026698;28;20096;-54
2023/01/17 11:18:04;;;;;;;8.85;1.60;;;4.10;99.90;;;;;;5022583;28;20557;-58
2023/01/17 11:20:33;;;;;;;11.30;1.70;;;4.20;99.90;;;;;;5021739;28;20076;-59
2023/01/17 11:23:06;;;;;;;7.38;1.73;;;4.20;99.90;;;;;;5023030;28;20513;-59
2023/01/17 11:25:35;;;;;;;8.50;1.65;;;4.30;99.90;;;;;;5025598;28;20081;-54
2023/01/17 11:28:04;;;;;;;13.10;1.80;;;4.40;99.90;;;;;;5016683;28;20053;-57
2023/01/17 11:30:31;;;;;;;7.60;1.50;;;4.50;99.90;;;;;;5026763;28;20091;-59
2023/01/17 11:32:58;;;;;;;8.73;1.90;;;4.50;99.90;;;;;;5025950;28;20172;-55
2023/01/17 11:35:25;;;;;;;7.57;1.77;;;4.50;99.90;;;;;;5022545;28;20099;-50
2023/01/17 11:38:04;;;;;;;7.50;1.90;;;4.60;99.90;;;;;;5026099;28;20147;-59
2023/01/17 11:40:31;;;;;;;9.48;2.00;;;4.60;99.90;;;;;;5020727;28;20049;-58
2023/01/17 11:43:19;;;;;;;10.70;1.48;;;4.70;99.90;;;;;;5021135;28;20129;-59
2023/01/17 11:45:46;;;;;;;11.10;2.22;;;4.70;99.90;;;;;;5043632;28;20136;-58
2023/01/17 11:48:14;;;;;;;15.07;2.00;;;4.70;99.90;;;;;;5026711;28;20053;-52
2023/01/17 11:50:42;;;;;;;7.80;1.70;;;4.70;99.90;;;;;;5023105;28;20053;-48
2023/01/17 11:53:16;;;;;;;10.73;2.20;;;4.70;99.90;;;;;;5020547;28;20057;-56
2023/01/17 11:55:53;;;;;;;8.63;2.10;;;4.70;99.90;;;;;;5029260;28;20092;-55
2023/01/17 11:58:22;;;;;;;9.55;2.05;;;4.70;99.90;;;;;;5018707;28;20053;-58
2023/01/17 12:00:50;;;;;;;12.15;1.85;;;4.80;99.90;;;;;;5030521;28;20160;-53
2023/01/17 12:03:21;;;;;;;10.75;2.10;;;4.80;99.90;;;;;;5024497;28;20155;-52
2023/01/17 12:05:52;;;;;;;8.40;1.90;;;4.90;99.90;;;;;;5026989;28;20057;-57
2023/01/17 12:08:26;;;;;;;6.68;1.88;;;4.90;99.90;;;;;;5022593;28;20100;-56
2023/01/17 12:10:55;;;;;;;5.18;1.48;;;4.90;99.90;;;;;;5023257;28;20049;-56
2023/01/17 12:16:27;;;;;;;10.43;1.90;;;4.90;99.90;;;;;;5023246;28;20058;-54
2023/01/17 12:18:55;;;;;;;;;;;5.00;99.90;;;;;;5023569;28;20041;-56
2023/01/17 12:21:25;;;;;;;6.88;1.65;;;4.90;99.90;;;;;;5024392;28;20333;-60
2023/01/17 12:24:02;;;;;;;6.22;1.50;;;4.90;99.90;;;;;;5028278;28;20054;-54
2023/01/17 12:26:36;;;;;;;11.88;2.00;;;5.00;99.90;;;;;;5016820;28;20081;-53
2023/01/17 12:29:32;;;;;;;7.60;1.52;;;5.10;99.90;;;;;;5022040;28;20119;-57
2023/01/17 12:32:11;;;;;;;4.28;1.20;;;5.10;99.90;;;;;;5031337;28;20057;-58
2023/01/17 12:34:40;;;;;;;12.07;1.98;;;5.10;99.90;;;;;;5032476;28;20077;-53
2023/01/17 12:37:12;;;;;;;4.95;1.40;;;5.00;99.90;;;;;;5033605;28;20088;-56
2023/01/17 12:39:40;;;;;;;7.82;2.20;;;5.00;99.90;;;;;;5029115;28;20073;-57
2023/01/17 12:42:09;;;;;;;9.18;1.80;;;5.00;99.90;;;;;;5021010;28;20128;-46
2023/01/17 12:44:50;;;;;;;7.10;1.48;;;4.90;99.90;;;;;;5036795;28;20073;-58
2023/01/17 12:47:17;;;;;;;13.55;2.28;;;4.80;99.90;;;;;;5033084;28;20057;-56
2023/01/17 12:49:47;;;;;;;6.07;1.52;;;4.70;99.90;;;;;;5032313;28;20049;-58
2023/01/17 12:52:18;;;;;;;10.43;2.63;;;4.70;99.90;;;;;;5033192;28;20102;-49
2023/01/17 12:54:45;;;;;;;6.53;2.00;;;4.70;99.90;;;;;;5030813;28;20049;-51
2023/01/17 12:57:14;;;;;;;6.88;1.70;;;4.80;99.90;;;;;;5032498;28;20115;-55
2023/01/17 12:59:42;;;;;;;6.22;2.00;;;4.70;99.90;;;;;;5029786;28;20146;-56
2023/01/17 13:02:16;;;;;;;7.65;1.60;;;4.80;99.90;;;;;;5031187;28;20092;-48
2023/01/17 13:04:44;;;;;;;5.32;1.70;;;4.80;99.90;;;;;;5030464;28;20128;-49
2023/01/17 13:07:24;;;;;;;10.55;2.58;;;4.90;99.90;;;;;;5030886;28;20107;-54
2023/01/17 13:09:53;;;;;;;11.65;1.98;;;4.90;99.90;;;;;;5031935;28;20099;-58
2023/01/17 13:12:20;;;;;;;8.90;1.70;;;4.90;99.90;;;;;;5030942;28;20132;-58
2023/01/17 13:14:46;;;;;;;10.65;1.67;;;4.90;99.90;;;;;;5032204;28;20073;-58
2023/01/17 13:17:24;;;;;;;5.47;1.75;;;4.90;99.90;;;;;;5029499;28;20529;-57
2023/01/17 13:19:52;;;;;;;9.18;1.80;;;4.90;99.90;;;;;;5032120;28;20397;-57
2023/01/17 13:22:21;;;;;;;7.63;1.90;;;4.90;99.90;;;;;;5032446;28;20142;-58
2023/01/17 13:24:50;;;;;;;6.32;1.73;;;4.90;99.90;;;;;;5031021;28;20103;-54
2023/01/17 13:27:28;;;;;;;4.13;1.02;;;4.90;99.90;;;;;;5018834;28;20413;-58
2023/01/17 13:30:02;;;;;;;5.55;1.35;;;5.00;99.90;;;;;;5030345;28;20553;-55
2023/01/17 13:32:44;;;;;;;5.85;1.13;;;5.00;99.90;;;;;;5031916;28;20085;-58
2023/01/17 13:35:19;;;;;;;6.40;1.13;;;5.00;99.90;;;;;;5033729;28;20143;-60
2023/01/17 13:37:55;;;;;;;4.57;1.15;;;4.90;99.90;;;;;;5033497;28;20097;-57
2023/01/17 13:40:28;;;;;;;6.28;0.95;;;4.90;99.90;;;;;;5031168;28;20084;-57
2023/01/17 13:42:56;;;;;;;3.80;0.70;;;4.80;99.90;;;;;;5032783;28;20095;-56
2023/01/17 13:45:23;;;;;;;5.63;1.20;;;4.80;99.90;;;;;;5047586;28;20111;-58
2023/01/17 13:47:52;;;;;;;4.07;0.80;;;4.80;99.90;;;;;;5039920;28;20061;-56
2023/01/17 13:50:48;;;;;;;3.20;0.80;;;4.70;99.90;;;;;;5029425;28;20486;-57
2023/01/17 13:53:53;;;;;;;5.68;0.80;;;4.80;99.90;;;;;;5029308;28;20085;-56
2023/01/17 13:56:34;;;;;;;5.15;0.98;;;4.80;99.90;;;;;;5016198;28;20124;-56
2023/01/17 13:59:19;;;;;;;4.43;0.93;;;4.70;99.90;;;;;;5033592;28;20085;-57
2023/01/17 14:01:50;;;;;;;3.90;1.13;;;4.70;99.90;;;;;;5028794;28;20085;-49
2023/01/17 14:04:19;;;;;;;4.55;1.00;;;4.80;99.90;;;;;;5033558;28;20142;-54
2023/01/17 14:06:47;;;;;;;5.55;1.17;;;4.70;99.90;;;;;;5033266;28;20456;-57
2023/01/17 14:09:21;;;;;;;7.22;1.50;;;4.70;99.90;;;;;;5031601;28;20131;-55
2023/01/17 14:11:51;;;;;;;4.75;1.27;;;4.70;99.90;;;;;;5029763;28;20501;-58
2023/01/17 14:14:43;;;;;;;4.90;1.20;;;4.60;99.90;;;;;;5028448;28;20110;-55
2023/01/17 14:17:54;;;;;;;6.18;1.30;;;4.60;99.90;;;;;;5033103;28;20552;-58
2023/01/17 14:21:09;;;;;;;7.57;1.50;;;4.60;99.90;;;;;;5030716;28;20413;-58
2023/01/17 14:23:58;;;;;;;8.85;1.48;;;4.50;99.90;;;;;;5029507;28;20128;-52
2023/01/17 14:26:46;;;;;;;8.68;1.48;;;4.50;99.90;;;;;;5030483;28;20073;-57
2023/01/17 14:29:45;;;;;;;8.88;2.08;;;4.50;99.90;;;;;;5032655;28;20490;-57
2023/01/17 14:32:13;;;;;;;6.32;1.80;;;4.50;99.90;;;;;;5029370;28;20093;-54
2023/01/17 14:34:40;;;;;;;9.60;2.35;;;4.40;99.90;;;;;;5029325;28;20096;-57